Time;durP1;ratioP1;P1;durP2;ratioP2;P2;SDS_P1;SDS_P2;PMS_P1;PMS_P2;Temp;Humidity;BMP_temperature;BMP_pressure;BME280_temperature;BME280_humidity;BME280_pressure;Samples;Min_cycle;Max_cycle;Signal;HPM_P1;HPM_P2
2023/06/12 00:00:52;;;;;;;5.83;3.90;;;21.90;99.90;;;;;;6251113;23;20938;-81
2023/06/12 00:03:20;;;;;;;4.77;3.67;;;21.90;99.90;;;;;;6250983;23;20702;-82
2023/06/12 00:05:47;;;;;;;6.77;4.00;;;21.80;99.90;;;;;;6252438;22;20447;-82
2023/06/12 00:08:17;;;;;;;4.07;3.20;;;21.80;99.90;;;;;;6252206;23;20499;-81
2023/06/12 00:10:45;;;;;;;5.03;3.93;;;21.80;99.90;;;;;;6252724;23;20419;-82
2023/06/12 00:13:16;;;;;;;5.63;4.57;;;21.80;99.90;;;;;;6251172;23;20471;-81
2023/06/12 00:15:44;;;;;;;5.80;4.27;;;21.70;99.90;;;;;;6252265;22;20459;-80
2023/06/12 00:18:12;;;;;;;6.90;4.27;;;21.70;99.90;;;;;;6252987;23;20441;-82
2023/06/12 00:20:39;;;;;;;5.37;4.30;;;21.60;99.90;;;;;;6252496;23;20415;-81
2023/06/12 00:23:06;;;;;;;6.70;4.10;;;21.60;99.90;;;;;;6252838;23;20439;-82
2023/06/12 00:25:33;;;;;;;4.83;4.10;;;21.50;99.90;;;;;;6253125;22;20458;-81
2023/06/12 00:28:00;;;;;;;5.73;3.93;;;21.50;99.90;;;;;;6252675;23;20494;-82
2023/06/12 00:30:27;;;;;;;4.87;3.60;;;21.40;99.90;;;;;;6251634;23;20465;-81
2023/06/12 00:32:55;;;;;;;4.83;4.13;;;21.40;99.90;;;;;;6250845;23;20414;-83
2023/06/12 00:35:22;;;;;;;6.10;4.10;;;21.30;99.90;;;;;;6252314;22;20544;-82
2023/06/12 00:37:50;;;;;;;7.30;4.90;;;21.20;99.90;;;;;;6252131;23;20430;-82
2023/06/12 00:40:17;;;;;;;7.90;4.20;;;21.20;99.90;;;;;;6252861;23;20396;-82
2023/06/12 00:42:45;;;;;;;6.20;4.67;;;21.10;99.90;;;;;;6251786;23;21084;-82
2023/06/12 00:45:13;;;;;;;6.10;4.37;;;21.10;99.90;;;;;;6252737;22;20810;-82
2023/06/12 00:47:41;;;;;;;6.30;4.00;;;21.00;99.90;;;;;;6249523;23;20451;-80
2023/06/12 00:50:12;;;;;;;5.00;4.10;;;21.00;99.90;;;;;;6251376;23;20506;-81
2023/06/12 00:52:43;;;;;;;5.53;4.07;;;20.90;99.90;;;;;;6249937;23;20399;-79
2023/06/12 00:55:10;;;;;;;8.70;4.87;;;20.90;99.90;;;;;;6251789;22;20435;-81
2023/06/12 00:57:38;;;;;;;6.10;4.50;;;20.90;99.90;;;;;;6251749;23;20415;-82
2023/06/12 01:00:07;;;;;;;7.17;4.27;;;20.80;99.90;;;;;;6251527;23;20415;-80
2023/06/12 01:02:39;;;;;;;5.97;4.07;;;20.80;99.90;;;;;;6251080;23;20416;-82
2023/06/12 01:05:07;;;;;;;5.83;4.73;;;20.80;99.90;;;;;;6251444;22;20501;-82
2023/06/12 01:07:43;;;;;;;6.30;4.33;;;20.70;99.90;;;;;;6251676;23;20490;-82
2023/06/12 01:10:16;;;;;;;5.67;4.40;;;20.70;99.90;;;;;;6251949;23;20439;-82
2023/06/12 01:12:44;;;;;;;5.13;4.40;;;20.70;99.90;;;;;;6250971;23;20419;-82
2023/06/12 01:15:11;;;;;;;7.40;4.30;;;20.60;99.90;;;;;;6252504;22;21216;-82
2023/06/12 01:17:41;;;;;;;6.50;4.67;;;20.60;99.90;;;;;;6252974;23;20498;-81
2023/06/12 01:20:12;;;;;;;6.63;4.10;;;20.60;99.90;;;;;;6251940;23;20926;-81
2023/06/12 01:22:43;;;;;;;5.90;3.87;;;20.50;99.90;;;;;;6251772;23;20399;-79
2023/06/12 01:25:38;;;;;;;5.83;3.93;;;20.50;99.90;;;;;;6252956;22;20435;-82
2023/06/12 01:28:25;;;;;;;4.80;3.83;;;20.50;99.90;;;;;;6228072;23;20422;-82
2023/06/12 01:31:08;;;;;;;5.20;3.93;;;20.50;99.90;;;;;;6254945;23;20392;-82
2023/06/12 01:33:40;;;;;;;5.00;4.10;;;20.40;99.90;;;;;;6253113;23;20440;-80
2023/06/12 01:36:13;;;;;;;6.57;4.60;;;20.40;99.90;;;;;;6254732;22;20474;-82
2023/06/12 01:38:42;;;;;;;4.87;4.20;;;20.40;99.90;;;;;;6255258;23;20870;-82
2023/06/12 01:41:10;;;;;;;5.33;4.00;;;20.40;99.90;;;;;;6254408;23;20812;-83
2023/06/12 01:43:37;;;;;;;5.63;4.00;;;20.30;99.90;;;;;;6254072;23;20431;-81
2023/06/12 01:46:06;;;;;;;5.47;3.57;;;20.30;99.90;;;;;;6255284;22;20487;-81
2023/06/12 01:48:33;;;;;;;6.07;3.73;;;20.30;99.90;;;;;;6254339;23;20470;-81
2023/06/12 01:51:01;;;;;;;5.13;4.50;;;20.30;99.90;;;;;;6254235;23;20444;-82
2023/06/12 01:53:28;;;;;;;5.23;4.10;;;20.20;99.90;;;;;;6253032;23;20426;-80
2023/06/12 01:55:56;;;;;;;5.43;4.10;;;20.30;99.90;;;;;;6254055;22;20960;-81
2023/06/12 01:58:22;;;;;;;5.13;4.00;;;20.20;99.90;;;;;;6251591;23;20427;-81
2023/06/12 02:00:49;;;;;;;6.13;4.30;;;20.20;99.90;;;;;;6255300;23;20499;-82
2023/06/12 02:03:17;;;;;;;5.70;4.60;;;20.20;99.90;;;;;;6253731;23;20419;-80
2023/06/12 02:05:44;;;;;;;5.73;5.07;;;20.10;99.90;;;;;;6253625;22;20443;-82
2023/06/12 02:08:12;;;;;;;5.73;4.30;;;20.10;99.90;;;;;;6253199;23;20742;-82
2023/06/12 02:10:38;;;;;;;5.60;4.40;;;20.10;99.90;;;;;;6251599;23;20789;-81
2023/06/12 02:13:05;;;;;;;4.80;4.27;;;20.00;99.90;;;;;;6251392;23;20443;-81
2023/06/12 02:15:32;;;;;;;4.80;4.30;;;19.90;99.90;;;;;;6250848;22;20828;-81
2023/06/12 02:18:00;;;;;;;7.53;4.40;;;19.90;99.90;;;;;;6250542;23;20412;-81
2023/06/12 02:20:26;;;;;;;6.13;4.20;;;19.90;99.90;;;;;;6250562;23;20412;-80
2023/06/12 02:22:53;;;;;;;7.83;4.63;;;19.90;99.90;;;;;;6249776;23;20412;-81
2023/06/12 02:25:21;;;;;;;5.43;4.23;;;19.90;99.90;;;;;;6251431;22;20520;-81
2023/06/12 02:27:48;;;;;;;4.60;3.80;;;19.80;99.90;;;;;;6251469;23;20510;-82
2023/06/12 02:30:15;;;;;;;6.13;5.13;;;19.80;99.90;;;;;;6251060;23;20475;-80
2023/06/12 02:32:42;;;;;;;6.20;4.20;;;19.80;99.90;;;;;;6249682;23;20906;-81
2023/06/12 02:35:09;;;;;;;8.73;4.70;;;19.80;99.90;;;;;;6250924;22;20454;-81
2023/06/12 02:37:36;;;;;;;8.63;4.67;;;19.80;99.90;;;;;;6250467;23;20411;-82
2023/06/12 02:40:04;;;;;;;5.60;4.50;;;19.70;99.90;;;;;;6250046;23;20925;-81
2023/06/12 02:42:32;;;;;;;6.20;4.00;;;19.70;99.90;;;;;;6249256;23;20748;-83
2023/06/12 02:44:59;;;;;;;5.17;4.30;;;19.70;99.90;;;;;;6250162;22;20510;-81
2023/06/12 02:47:26;;;;;;;7.83;5.17;;;19.60;99.90;;;;;;6249941;23;20443;-81
2023/06/12 02:49:52;;;;;;;5.73;4.47;;;19.60;99.90;;;;;;6250471;23;20446;-81
2023/06/12 02:52:19;;;;;;;4.63;4.03;;;19.50;99.90;;;;;;6250491;23;20408;-81
2023/06/12 02:54:46;;;;;;;5.43;4.13;;;19.50;99.90;;;;;;6249776;22;20423;-81
2023/06/12 02:57:14;;;;;;;5.90;4.20;;;19.50;99.90;;;;;;6250130;23;20439;-83
2023/06/12 02:59:42;;;;;;;7.57;4.70;;;19.40;99.90;;;;;;6249773;23;20412;-81
2023/06/12 03:02:09;;;;;;;6.10;4.60;;;19.40;99.90;;;;;;6250149;23;20474;-82
2023/06/12 03:04:36;;;;;;;8.23;4.10;;;19.30;99.90;;;;;;6249540;22;20418;-81
2023/06/12 03:07:05;;;;;;;5.20;4.40;;;19.30;99.90;;;;;;6250396;22;21088;-81
2023/06/12 03:09:32;;;;;;;6.40;4.37;;;19.30;99.90;;;;;;6248237;23;20403;-80
2023/06/12 03:12:00;;;;;;;5.70;4.80;;;19.20;99.90;;;;;;6249911;23;20415;-82
2023/06/12 03:14:27;;;;;;;5.60;4.00;;;19.20;99.90;;;;;;6249034;23;20443;-81
2023/06/12 03:16:55;;;;;;;7.20;4.40;;;19.10;99.90;;;;;;6250682;22;20481;-81
2023/06/12 03:19:22;;;;;;;7.93;4.70;;;19.10;99.90;;;;;;6250512;23;20495;-80
2023/06/12 03:21:49;;;;;;;4.77;4.00;;;19.10;99.90;;;;;;6251413;23;20440;-78
2023/06/12 03:24:16;;;;;;;8.00;5.67;;;19.00;99.90;;;;;;6248955;23;20491;-80
2023/06/12 03:26:43;;;;;;;6.03;4.77;;;19.00;99.90;;;;;;6249221;22;20970;-80
2023/06/12 03:29:10;;;;;;;8.83;4.80;;;18.90;99.90;;;;;;6250541;23;20490;-81
2023/06/12 03:31:37;;;;;;;6.60;4.60;;;19.00;99.90;;;;;;6249945;23;20470;-81
2023/06/12 03:34:05;;;;;;;5.90;4.63;;;18.90;99.90;;;;;;6248885;23;20494;-81
2023/06/12 03:36:33;;;;;;;6.13;4.40;;;19.00;99.90;;;;;;6249355;22;20851;-80
2023/06/12 03:39:01;;;;;;;5.97;4.70;;;18.90;99.90;;;;;;6249956;23;20419;-81
2023/06/12 03:41:30;;;;;;;7.17;4.80;;;18.90;99.90;;;;;;6250557;23;20440;-83
2023/06/12 03:43:57;;;;;;;6.83;4.73;;;18.90;99.90;;;;;;6249902;23;20800;-82
2023/06/12 03:46:24;;;;;;;7.63;4.90;;;18.90;99.90;;;;;;6251575;22;20511;-81
2023/06/12 03:48:51;;;;;;;5.40;4.23;;;18.90;99.90;;;;;;6250374;23;20466;-80
2023/06/12 03:51:19;;;;;;;7.47;4.43;;;18.90;99.90;;;;;;6248815;23;20963;-82
2023/06/12 03:53:46;;;;;;;5.53;4.60;;;18.90;99.90;;;;;;6248666;23;20419;-81
2023/06/12 03:56:13;;;;;;;5.87;4.57;;;18.90;99.90;;;;;;6249482;22;20469;-82
2023/06/12 03:58:40;;;;;;;6.17;4.20;;;18.90;99.90;;;;;;6250642;23;20403;-82
2023/06/12 04:01:07;;;;;;;5.57;4.63;;;18.90;99.90;;;;;;6249866;23;20453;-81
2023/06/12 04:03:34;;;;;;;8.60;4.67;;;18.90;99.90;;;;;;6248572;23;20738;-81
2023/06/12 04:06:01;;;;;;;6.47;4.50;;;18.90;99.90;;;;;;6251028;22;20937;-81
2023/06/12 04:08:29;;;;;;;6.20;4.17;;;18.90;99.90;;;;;;6251450;23;20450;-81
2023/06/12 04:10:56;;;;;;;9.13;4.83;;;18.90;99.90;;;;;;6251494;23;20475;-81
2023/06/12 04:13:23;;;;;;;7.40;4.10;;;18.90;99.90;;;;;;6252284;23;20560;-80
2023/06/12 04:15:50;;;;;;;8.43;4.70;;;19.00;99.90;;;;;;6252344;22;20439;-79
2023/06/12 04:18:17;;;;;;;5.30;4.60;;;19.00;99.90;;;;;;6251417;23;20430;-81
2023/06/12 04:20:44;;;;;;;8.27;4.77;;;18.90;99.90;;;;;;6251582;23;20517;-81
2023/06/12 04:23:12;;;;;;;8.13;4.50;;;18.90;99.90;;;;;;6250279;23;20434;-80
2023/06/12 04:25:42;;;;;;;6.27;4.33;;;19.00;99.90;;;;;;6252404;22;20458;-81
2023/06/12 04:28:13;;;;;;;5.30;3.83;;;19.10;99.90;;;;;;6252749;23;20443;-81
2023/06/12 04:30:41;;;;;;;5.60;4.50;;;19.10;99.90;;;;;;6253566;23;20468;-81
2023/06/12 04:33:09;;;;;;;6.47;5.00;;;19.10;99.90;;;;;;6252926;23;20416;-82
2023/06/12 04:35:37;;;;;;;6.80;4.60;;;19.20;99.90;;;;;;6253946;22;20448;-81
2023/06/12 04:38:05;;;;;;;7.10;4.90;;;19.20;99.90;;;;;;6254885;23;20403;-82
2023/06/12 04:40:36;;;;;;;7.20;5.03;;;19.20;99.90;;;;;;6255052;23;20443;-83
2023/06/12 04:43:05;;;;;;;6.67;4.73;;;19.30;99.90;;;;;;6258645;23;20396;-80
2023/06/12 04:45:33;;;;;;;6.70;5.53;;;19.30;99.90;;;;;;6262156;22;20424;-80
2023/06/12 04:48:01;;;;;;;6.00;4.83;;;19.20;99.90;;;;;;6261401;23;20450;-82
2023/06/12 04:50:28;;;;;;;6.47;5.20;;;19.30;99.90;;;;;;6257986;23;20519;-78
2023/06/12 04:52:55;;;;;;;5.10;4.27;;;19.30;99.90;;;;;;6257664;23;20487;-80
2023/06/12 04:55:22;;;;;;;6.40;5.23;;;19.40;99.90;;;;;;6257664;22;20466;-80
2023/06/12 04:57:52;;;;;;;6.30;5.30;;;19.40;99.90;;;;;;6262095;23;20483;-82
2023/06/12 05:00:21;;;;;;;9.30;5.10;;;19.40;99.90;;;;;;6263369;23;20443;-81
2023/06/12 05:02:49;;;;;;;6.53;4.77;;;19.50;99.90;;;;;;6261706;23;20407;-80
2023/06/12 05:05:16;;;;;;;6.53;5.43;;;19.50;1.00;;;;;;6260560;22;20436;-79
2023/06/12 05:07:45;;;;;;;7.20;4.70;;;19.50;99.90;;;;;;6242915;23;20999;-78
2023/06/12 05:10:13;;;;;;;9.23;5.77;;;19.60;99.90;;;;;;6221182;23;20431;-80
2023/06/12 05:12:40;;;;;;;8.80;5.10;;;19.60;99.90;;;;;;6249218;23;20462;-81
2023/06/12 05:15:08;;;;;;;7.37;5.13;;;19.70;99.90;;;;;;6252046;23;20495;-82
2023/06/12 05:17:37;;;;;;;11.07;5.40;;;19.80;99.90;;;;;;6250566;22;20995;-81
2023/06/12 05:20:08;;;;;;;8.63;5.90;;;19.80;99.90;;;;;;6249700;23;20411;-80
2023/06/12 05:22:35;;;;;;;8.50;6.10;;;19.80;99.90;;;;;;6249345;23;20426;-82
2023/06/12 05:25:03;;;;;;;6.57;5.03;;;19.90;99.90;;;;;;6250753;23;20414;-82
2023/06/12 05:27:30;;;;;;;11.50;5.40;;;19.90;99.90;;;;;;6249584;22;20479;-79
2023/06/12 05:29:56;;;;;;;8.50;4.53;;;19.90;99.90;;;;;;6248294;23;20411;-81
2023/06/12 05:32:23;;;;;;;7.70;5.10;;;20.00;99.90;;;;;;6249045;23;20407;-81
2023/06/12 05:34:52;;;;;;;8.17;5.60;;;20.00;99.90;;;;;;6249338;23;20491;-79
2023/06/12 05:37:18;;;;;;;7.20;4.97;;;20.10;99.90;;;;;;6246712;22;20423;-81
2023/06/12 05:39:45;;;;;;;7.30;5.23;;;20.20;99.90;;;;;;6247075;23;20439;-79
2023/06/12 05:42:12;;;;;;;6.50;5.67;;;20.20;99.90;;;;;;6249808;23;20438;-80
2023/06/12 05:44:39;;;;;;;8.63;4.90;;;20.30;99.90;;;;;;6248211;23;20414;-78
2023/06/12 05:47:07;;;;;;;7.17;5.43;;;20.40;99.90;;;;;;6249538;22;20435;-78
2023/06/12 05:49:34;;;;;;;5.53;4.77;;;20.50;99.90;;;;;;6248888;23;20450;-79
2023/06/12 05:52:03;;;;;;;7.60;4.80;;;20.60;99.90;;;;;;6248507;23;20487;-78
2023/06/12 05:54:30;;;;;;;6.50;5.50;;;20.60;99.90;;;;;;6244724;23;20411;-78
2023/06/12 05:56:57;;;;;;;7.73;5.50;;;20.70;99.90;;;;;;6249236;22;20514;-78
2023/06/12 05:59:24;;;;;;;6.40;5.40;;;20.70;99.90;;;;;;6244823;23;20422;-78
2023/06/12 06:01:51;;;;;;;6.60;5.23;;;20.80;99.90;;;;;;6244513;23;20415;-78
2023/06/12 06:04:18;;;;;;;9.57;5.30;;;20.90;99.90;;;;;;6245554;23;20447;-77
2023/06/12 06:06:46;;;;;;;8.90;4.93;;;21.00;99.90;;;;;;6245706;22;20446;-78
2023/06/12 06:09:15;;;;;;;6.30;5.13;;;21.10;99.90;;;;;;6248753;23;20474;-80
2023/06/12 06:11:41;;;;;;;6.03;4.13;;;21.10;99.90;;;;;;6247957;23;20487;-79
2023/06/12 06:14:08;;;;;;;6.43;5.20;;;21.10;99.90;;;;;;6246456;23;20511;-82
2023/06/12 06:16:35;;;;;;;9.03;5.03;;;21.20;99.90;;;;;;6252459;22;20610;-80
2023/06/12 06:19:02;;;;;;;7.73;5.83;;;21.30;99.90;;;;;;6245840;23;20404;-78
2023/06/12 06:21:31;;;;;;;6.90;5.37;;;21.40;99.90;;;;;;6246533;23;20458;-80
2023/06/12 06:23:58;;;;;;;6.30;5.30;;;21.50;99.90;;;;;;6245693;23;20498;-80
2023/06/12 06:26:27;;;;;;;5.63;5.00;;;21.60;99.90;;;;;;6246712;22;20440;-78
2023/06/12 06:28:54;;;;;;;7.20;4.77;;;21.60;99.90;;;;;;6246266;23;20537;-79
2023/06/12 06:31:22;;;;;;;6.13;4.90;;;21.70;99.90;;;;;;6245419;23;20932;-79
2023/06/12 06:33:48;;;;;;;7.23;5.00;;;21.70;99.90;;;;;;6246219;23;20411;-81
2023/06/12 06:36:15;;;;;;;6.80;5.20;;;21.90;99.90;;;;;;6242365;22;20518;-76
2023/06/12 06:38:42;;;;;;;7.10;5.33;;;21.90;99.90;;;;;;6245949;23;20431;-79
2023/06/12 06:41:09;;;;;;;5.40;4.37;;;21.90;99.90;;;;;;6245189;23;20507;-80
2023/06/12 06:43:37;;;;;;;6.20;5.20;;;22.00;99.90;;;;;;6248006;23;20438;-79
2023/06/12 06:46:04;;;;;;;9.53;5.80;;;22.00;99.90;;;;;;6247357;22;20459;-78
2023/06/12 06:48:31;;;;;;;7.17;5.57;;;22.00;99.90;;;;;;6247148;23;20447;-82
2023/06/12 06:50:58;;;;;;;9.20;5.60;;;22.10;99.90;;;;;;6248512;23;20668;-82
2023/06/12 06:53:25;;;;;;;8.37;5.17;;;22.20;99.90;;;;;;6249719;23;20490;-81
2023/06/12 06:55:51;;;;;;;6.77;4.57;;;22.40;99.90;;;;;;6263904;22;20428;-81
2023/06/12 06:58:19;;;;;;;6.60;4.90;;;22.50;99.90;;;;;;6249112;23;20936;-79
2023/06/12 07:00:47;;;;;;;7.93;5.97;;;22.60;99.90;;;;;;6245850;23;20419;-82
2023/06/12 07:03:14;;;;;;;6.67;4.87;;;22.70;99.90;;;;;;6245301;23;20450;-80
2023/06/12 07:05:41;;;;;;;8.40;5.53;;;22.80;99.90;;;;;;6247254;22;20518;-79
2023/06/12 07:08:09;;;;;;;6.23;5.03;;;22.90;99.90;;;;;;6245750;23;20459;-79
2023/06/12 07:10:37;;;;;;;6.63;5.10;;;23.10;99.90;;;;;;6246495;23;20407;-79
2023/06/12 07:13:03;;;;;;;7.70;5.43;;;23.00;99.90;;;;;;6245959;23;20412;-79
2023/06/12 07:15:30;;;;;;;6.90;4.20;;;23.10;99.90;;;;;;6247609;22;20506;-80
2023/06/12 07:17:58;;;;;;;8.43;5.10;;;23.30;99.90;;;;;;6247156;23;20458;-80
2023/06/12 07:20:25;;;;;;;10.07;5.40;;;23.40;99.90;;;;;;6246549;23;21000;-79
2023/06/12 07:22:52;;;;;;;5.77;4.70;;;23.40;99.90;;;;;;6245305;23;20487;-81
2023/06/12 07:25:19;;;;;;;6.87;4.87;;;23.60;99.90;;;;;;6246011;22;20494;-80
2023/06/12 07:27:46;;;;;;;5.60;4.57;;;23.70;99.90;;;;;;6244784;23;20444;-80
2023/06/12 07:30:13;;;;;;;8.33;4.83;;;23.80;99.90;;;;;;6244107;23;20447;-79
2023/06/12 07:32:40;;;;;;;7.40;5.20;;;23.80;99.90;;;;;;6244324;23;20919;-79
2023/06/12 07:35:09;;;;;;;7.33;5.07;;;23.80;99.90;;;;;;6245206;23;20446;-78
2023/06/12 07:37:36;;;;;;;6.50;4.90;;;23.90;99.90;;;;;;6246252;22;20435;-80
2023/06/12 07:40:06;;;;;;;8.87;5.90;;;23.90;99.90;;;;;;6245530;23;20416;-79
2023/06/12 07:42:34;;;;;;;6.07;5.47;;;24.10;99.90;;;;;;6246612;23;20739;-79
2023/06/12 07:45:01;;;;;;;5.80;5.03;;;24.20;99.90;;;;;;6248675;23;20415;-79
2023/06/12 07:47:27;;;;;;;6.23;4.97;;;24.30;99.90;;;;;;6247968;22;20436;-81
2023/06/12 07:49:54;;;;;;;7.83;5.30;;;24.40;99.90;;;;;;6248107;23;20447;-80
2023/06/12 07:52:23;;;;;;;6.07;5.47;;;24.40;99.90;;;;;;6246412;23;20965;-79
2023/06/12 07:54:50;;;;;;;5.90;4.50;;;24.50;99.90;;;;;;6249649;23;20439;-79
2023/06/12 07:57:17;;;;;;;9.00;5.03;;;24.40;99.90;;;;;;6247789;22;20431;-81
2023/06/12 07:59:44;;;;;;;7.47;5.50;;;24.50;99.90;;;;;;6248997;23;20482;-80
2023/06/12 08:02:11;;;;;;;9.30;5.63;;;24.60;99.90;;;;;;6248471;23;20408;-80
2023/06/12 08:04:40;;;;;;;6.00;4.60;;;24.70;99.90;;;;;;6247687;23;20415;-78
2023/06/12 08:07:10;;;;;;;8.17;5.87;;;24.90;99.90;;;;;;6246843;22;20522;-80
2023/06/12 08:09:40;;;;;;;6.63;4.60;;;25.00;99.90;;;;;;6246377;23;20454;-83
2023/06/12 08:12:08;;;;;;;5.10;4.60;;;25.10;99.90;;;;;;6246701;23;20412;-80
2023/06/12 08:14:34;;;;;;;9.33;5.63;;;25.30;99.90;;;;;;6247109;23;20511;-78
2023/06/12 08:17:01;;;;;;;5.13;4.63;;;25.30;99.90;;;;;;6248859;22;20431;-81
2023/06/12 08:19:28;;;;;;;6.07;5.37;;;25.20;99.90;;;;;;6249064;23;20410;-78
2023/06/12 08:21:55;;;;;;;5.13;4.63;;;25.50;99.90;;;;;;6248603;23;20796;-80
2023/06/12 08:24:23;;;;;;;12.30;6.03;;;25.40;99.90;;;;;;6246740;23;20422;-81
2023/06/12 08:26:51;;;;;;;6.30;5.07;;;25.60;99.90;;;;;;6246675;22;20462;-82
2023/06/12 08:29:18;;;;;;;6.40;5.30;;;25.60;99.90;;;;;;6248122;23;20526;-80
2023/06/12 08:31:45;;;;;;;6.37;5.17;;;25.60;99.90;;;;;;6246731;23;20421;-80
2023/06/12 08:34:12;;;;;;;5.50;4.93;;;25.80;99.90;;;;;;6246879;23;20961;-80
2023/06/12 08:36:38;;;;;;;5.67;4.90;;;25.90;99.90;;;;;;6247614;22;20598;-78
2023/06/12 08:39:05;;;;;;;6.93;4.90;;;26.10;99.90;;;;;;6248427;23;20411;-81
2023/06/12 08:41:35;;;;;;;5.80;5.10;;;26.20;99.90;;;;;;6248277;23;20431;-80
2023/06/12 08:44:03;;;;;;;6.97;5.20;;;26.10;99.90;;;;;;6246667;23;20442;-79
2023/06/12 08:46:31;;;;;;;6.50;5.50;;;26.20;99.90;;;;;;6247910;22;20428;-80
2023/06/12 08:49:00;;;;;;;6.73;4.53;;;26.20;99.90;;;;;;6248679;23;20439;-78
2023/06/12 08:51:28;;;;;;;5.10;4.60;;;26.20;99.90;;;;;;6248194;23;20503;-79
2023/06/12 08:53:57;;;;;;;5.40;4.60;;;26.30;99.90;;;;;;6248714;23;20427;-80
2023/06/12 08:56:25;;;;;;;6.03;4.90;;;26.70;99.90;;;;;;6246802;22;20427;-80
2023/06/12 08:58:52;;;;;;;6.83;4.80;;;27.00;99.90;;;;;;6248230;23;20493;-78
2023/06/12 09:01:23;;;;;;;5.60;5.00;;;27.40;99.90;;;;;;6257166;23;20419;-78
2023/06/12 09:03:56;;;;;;;5.27;4.77;;;27.70;99.90;;;;;;6249303;23;20398;-80
2023/06/12 09:06:23;;;;;;;6.00;4.80;;;27.70;99.90;;;;;;6249888;22;20937;-80
2023/06/12 09:08:50;;;;;;;5.93;5.20;;;28.00;99.90;;;;;;6242811;23;20451;-81
2023/06/12 09:11:16;;;;;;;4.87;4.33;;;28.00;99.90;;;;;;6247688;23;20447;-80
2023/06/12 09:13:43;;;;;;;8.07;5.47;;;28.20;99.90;;;;;;6247689;23;20408;-79
2023/06/12 09:16:14;;;;;;;6.67;4.90;;;28.40;99.90;;;;;;6248904;22;20506;-79
2023/06/12 09:18:53;;;;;;;6.50;5.23;;;28.50;99.90;;;;;;6253463;23;20411;-78
2023/06/12 09:21:23;;;;;;;6.03;5.40;;;28.70;99.90;;;;;;6258083;23;20887;-79
2023/06/12 09:23:51;;;;;;;5.97;5.37;;;28.70;99.90;;;;;;6254161;23;20487;-78
2023/06/12 09:26:21;;;;;;;7.03;4.57;;;28.80;99.90;;;;;;6248737;22;20432;-79
2023/06/12 09:28:51;;;;;;;5.50;5.00;;;29.00;99.90;;;;;;6246075;23;20439;-78
2023/06/12 09:31:19;;;;;;;5.10;4.60;;;29.00;99.90;;;;;;6248644;23;20444;-80
2023/06/12 09:33:46;;;;;;;9.50;5.20;;;29.20;99.90;;;;;;6247493;23;20932;-79
2023/06/12 09:36:14;;;;;;;5.87;4.73;;;29.40;99.90;;;;;;6249200;22;20427;-80
2023/06/12 09:38:41;;;;;;;8.23;5.37;;;29.50;99.90;;;;;;6248245;23;20411;-79
2023/06/12 09:41:10;;;;;;;6.80;6.10;;;29.70;99.90;;;;;;6248325;23;20741;-80
2023/06/12 09:43:37;;;;;;;8.10;5.77;;;29.70;99.90;;;;;;6247448;23;20454;-80
2023/06/12 09:46:06;;;;;;;7.70;5.80;;;29.80;99.90;;;;;;6247757;22;20431;-80
2023/06/12 09:48:36;;;;;;;8.77;5.63;;;29.80;99.90;;;;;;6245707;23;20443;-80
2023/06/12 09:51:07;;;;;;;7.60;6.90;;;30.10;99.90;;;;;;6247477;23;20423;-79
2023/06/12 09:53:38;;;;;;;6.33;5.50;;;30.20;99.90;;;;;;6246554;23;20394;-79
2023/06/12 09:59:52;;;;;;;6.03;5.43;;;30.20;99.90;;;;;;6092506;23;20840;-79
2023/06/12 10:02:19;;;;;;;6.20;5.60;;;30.50;99.90;;;;;;6094860;23;20414;-80
2023/06/12 10:04:54;;;;;;;7.07;5.70;;;30.40;99.90;;;;;;6212027;23;20778;-79
2023/06/12 10:07:28;;;;;;;7.90;5.50;;;30.60;99.90;;;;;;6246491;22;20493;-80
2023/06/12 10:09:57;;;;;;;9.80;5.20;;;30.80;99.90;;;;;;6244070;23;20848;-80
2023/06/12 10:12:25;;;;;;;5.53;5.00;;;30.80;99.90;;;;;;6248280;23;20577;-77
2023/06/12 10:14:53;;;;;;;5.50;4.87;;;31.10;99.90;;;;;;6247652;23;21000;-80
2023/06/12 10:17:22;;;;;;;8.67;5.00;;;31.40;99.90;;;;;;6247595;22;20423;-82
2023/06/12 10:19:50;;;;;;;8.73;5.90;;;31.80;99.90;;;;;;6248675;23;20495;-82
2023/06/12 10:22:17;;;;;;;7.40;5.10;;;31.80;99.90;;;;;;6246786;23;20411;-79
2023/06/12 10:24:44;;;;;;;8.17;5.67;;;31.80;99.90;;;;;;6247381;23;20938;-82
2023/06/12 10:27:13;;;;;;;6.60;6.00;;;32.00;99.90;;;;;;6247004;22;20436;-82
2023/06/12 10:29:40;;;;;;;7.40;5.43;;;32.10;99.90;;;;;;6246895;23;20550;-81
2023/06/12 10:32:08;;;;;;;7.60;5.57;;;32.20;99.90;;;;;;6247549;23;20415;-81
2023/06/12 10:34:36;;;;;;;7.07;5.43;;;32.10;99.90;;;;;;6246694;23;20446;-82
2023/06/12 10:37:28;;;;;;;6.17;5.57;;;32.50;99.90;;;;;;6247383;22;20515;-77
2023/06/12 10:40:09;;;;;;;7.03;5.87;;;32.50;99.90;;;;;;6211028;23;20492;-81
2023/06/12 10:42:41;;;;;;;5.90;5.30;;;32.60;99.90;;;;;;6246833;23;20400;-81
2023/06/12 10:45:22;;;;;;;6.03;5.43;;;32.70;99.90;;;;;;6245076;23;20901;-80
2023/06/12 10:48:17;;;;;;;8.00;5.50;;;32.80;99.90;;;;;;6247387;23;20468;-80
2023/06/12 10:50:45;;;;;;;7.77;5.90;;;33.10;99.90;;;;;;6161234;23;20940;-81
2023/06/12 10:53:14;;;;;;;5.40;4.90;;;33.10;99.90;;;;;;6247352;23;20480;-80
2023/06/12 10:55:41;;;;;;;5.97;5.37;;;33.10;99.90;;;;;;6248641;22;20437;-82
2023/06/12 10:58:14;;;;;;;8.13;5.43;;;33.00;99.90;;;;;;6242593;23;20425;-81
2023/06/12 11:00:45;;;;;;;6.40;5.40;;;33.10;99.90;;;;;;6246931;23;20414;-81
2023/06/12 11:03:14;;;;;;;6.30;5.70;;;33.30;99.90;;;;;;6248566;23;20391;-82
2023/06/12 11:05:47;;;;;;;7.27;5.13;;;33.20;99.90;;;;;;6253265;22;20989;-82
2023/06/12 11:08:15;;;;;;;6.30;5.70;;;33.20;99.90;;;;;;6256960;22;20448;-84
2023/06/12 11:10:42;;;;;;;12.40;5.67;;;33.40;99.90;;;;;;6251535;23;21112;-86
2023/06/12 11:13:11;;;;;;;5.40;4.87;;;33.60;99.90;;;;;;6252866;23;20412;-85
2023/06/12 11:15:45;;;;;;;6.60;5.80;;;33.20;99.90;;;;;;6248047;23;20443;-86
2023/06/12 11:18:14;;;;;;;8.87;5.40;;;33.00;99.90;;;;;;6246940;22;20791;-86
2023/06/12 11:20:41;;;;;;;6.40;5.80;;;33.40;99.90;;;;;;6247718;23;20420;-85
2023/06/12 11:23:08;;;;;;;5.23;4.73;;;33.60;99.90;;;;;;6245390;23;20419;-85
2023/06/12 11:25:42;;;;;;;8.37;5.37;;;33.60;99.90;;;;;;6249767;23;20723;-85
2023/06/12 11:28:09;;;;;;;7.37;5.40;;;33.70;99.90;;;;;;6250334;22;20439;-85
2023/06/12 11:30:37;;;;;;;9.20;6.00;;;33.90;99.90;;;;;;6249360;23;20523;-85
2023/06/12 11:33:08;;;;;;;6.03;5.53;;;33.40;99.90;;;;;;6251051;23;20415;-86
2023/06/12 11:35:40;;;;;;;8.50;6.03;;;32.60;99.90;;;;;;6251235;23;20763;-85
2023/06/12 11:38:07;;;;;;;8.43;5.00;;;32.00;99.90;;;;;;6250104;22;20489;-85
2023/06/12 11:40:34;;;;;;;6.53;5.90;;;32.20;99.90;;;;;;6248072;23;20439;-85
2023/06/12 11:43:01;;;;;;;5.90;5.40;;;32.80;99.90;;;;;;6251206;23;20447;-85
2023/06/12 11:45:30;;;;;;;5.67;5.17;;;33.30;99.90;;;;;;6253258;23;20491;-82
2023/06/12 11:47:59;;;;;;;6.80;6.03;;;33.60;99.90;;;;;;6250042;22;20510;-86
2023/06/12 11:50:27;;;;;;;5.40;4.90;;;33.00;99.90;;;;;;6249257;23;20443;-86
2023/06/12 11:52:56;;;;;;;5.90;5.40;;;32.60;99.90;;;;;;6251576;23;20485;-86
2023/06/12 11:55:23;;;;;;;5.90;5.40;;;32.20;99.90;;;;;;6251470;23;20458;-82
2023/06/12 11:57:52;;;;;;;6.57;5.97;;;31.40;99.90;;;;;;6256308;22;20466;-82
2023/06/12 12:00:21;;;;;;;7.53;6.73;;;31.10;99.90;;;;;;6254598;23;20411;-82
2023/06/12 12:02:51;;;;;;;7.03;5.53;;;30.70;99.90;;;;;;6255692;23;20691;-84
2023/06/12 12:05:20;;;;;;;6.50;5.80;;;30.30;99.90;;;;;;6254500;23;20403;-80
2023/06/12 12:08:07;;;;;;;6.33;5.70;;;30.00;99.90;;;;;;6251916;22;20474;-84
2023/06/12 12:10:50;;;;;;;7.90;6.60;;;30.00;99.90;;;;;;6253269;23;20436;-86
2023/06/12 12:13:17;;;;;;;10.77;6.00;;;30.10;99.90;;;;;;6252750;23;20412;-84
2023/06/12 12:15:43;;;;;;;8.00;6.60;;;30.90;99.90;;;;;;6253448;23;20519;-84
2023/06/12 12:18:14;;;;;;;8.60;7.10;;;31.80;99.90;;;;;;6252890;22;20518;-84
2023/06/12 12:20:43;;;;;;;9.40;6.20;;;32.70;99.90;;;;;;6251508;23;20404;-83
2023/06/12 12:23:12;;;;;;;11.10;6.93;;;33.00;99.90;;;;;;6251277;23;20423;-83
2023/06/12 12:25:40;;;;;;;8.07;5.27;;;33.00;99.90;;;;;;6249060;23;20404;-83
2023/06/12 12:28:08;;;;;;;7.67;6.20;;;32.90;99.90;;;;;;6254819;22;20440;-83
2023/06/12 12:30:36;;;;;;;5.50;5.00;;;33.30;99.90;;;;;;6252934;23;20534;-83
2023/06/12 12:33:03;;;;;;;7.20;6.47;;;33.90;99.90;;;;;;6252005;23;20419;-83
2023/06/12 12:35:30;;;;;;;10.67;5.40;;;34.30;99.90;;;;;;6256071;23;20416;-85
2023/06/12 12:37:58;;;;;;;7.20;6.50;;;34.80;99.90;;;;;;6251190;22;20462;-85
2023/06/12 12:40:28;;;;;;;10.03;6.30;;;34.90;99.90;;;;;;6247893;23;20797;-84
2023/06/12 12:43:04;;;;;;;7.60;6.90;;;35.20;99.90;;;;;;6249523;23;20787;-84
2023/06/12 12:45:31;;;;;;;7.50;6.80;;;35.40;99.90;;;;;;6250675;23;20503;-84
2023/06/12 12:47:59;;;;;;;8.00;6.70;;;35.50;99.90;;;;;;6251256;22;20452;-84
2023/06/12 12:50:26;;;;;;;7.40;6.60;;;35.30;99.90;;;;;;6253285;23;20439;-84
2023/06/12 12:52:53;;;;;;;7.03;6.37;;;35.40;99.90;;;;;;6255252;23;21285;-85
2023/06/12 12:55:24;;;;;;;8.17;7.37;;;35.90;99.90;;;;;;6255655;23;20442;-83